Time;durP1;ratioP1;P1;durP2;ratioP2;P2;SDS_P1;SDS_P2;PMS_P1;PMS_P2;Temp;Humidity;BMP_temperature;BMP_pressure;BME280_temperature;BME280_humidity;BME280_pressure;Samples;Min_cycle;Max_cycle;Signal;HPM_P1;HPM_P2
2021/04/11 00:00:40;;;;;;;2.70;2.50;;;11.00;99.90;;;;;;5014722;28;20250;-79
2021/04/11 00:03:08;;;;;;;4.17;2.57;;;11.00;99.90;;;;;;5013130;28;20201;-80
2021/04/11 00:05:38;;;;;;;3.37;3.00;;;11.00;99.90;;;;;;5009817;28;20224;-80
2021/04/11 00:08:06;;;;;;;3.03;2.80;;;11.00;99.90;;;;;;5008316;28;20202;-79
2021/04/11 00:10:34;;;;;;;3.33;3.00;;;11.00;99.90;;;;;;5013942;28;20201;-78
2021/04/11 00:13:01;;;;;;;2.93;2.73;;;11.00;99.90;;;;;;5011250;28;20204;-80
2021/04/11 00:15:29;;;;;;;3.37;3.10;;;11.00;99.90;;;;;;5003816;28;20217;-80
2021/04/11 00:17:55;;;;;;;3.47;3.23;;;11.00;99.90;;;;;;5011247;28;20188;-78
2021/04/11 00:20:23;;;;;;;3.50;3.20;;;10.90;99.90;;;;;;5010109;28;20212;-78
2021/04/11 00:22:51;;;;;;;3.50;3.20;;;10.90;99.90;;;;;;5016578;28;20188;-77
2021/04/11 00:25:24;;;;;;;3.70;3.40;;;10.90;99.90;;;;;;5034739;23;20228;-78
2021/04/11 00:27:50;;;;;;;3.30;3.10;;;10.80;99.90;;;;;;5020914;28;20224;-77
2021/04/11 00:30:18;;;;;;;3.80;3.50;;;10.80;99.90;;;;;;5022128;28;20196;-77
2021/04/11 00:32:45;;;;;;;3.10;2.80;;;10.80;99.90;;;;;;5014725;28;20723;-78
2021/04/11 00:35:12;;;;;;;3.83;3.53;;;10.70;99.90;;;;;;5012885;28;20255;-78
2021/04/11 00:37:39;;;;;;;4.60;4.10;;;10.70;99.90;;;;;;5010084;28;20193;-78
2021/04/11 00:40:11;;;;;;;4.27;3.87;;;10.60;99.90;;;;;;5013179;28;20692;-77
2021/04/11 00:42:42;;;;;;;4.57;4.17;;;10.60;99.90;;;;;;5010910;28;20213;-77
2021/04/11 00:45:19;;;;;;;4.87;4.40;;;10.50;99.90;;;;;;5010592;28;20212;-77
2021/04/11 00:47:46;;;;;;;4.60;4.10;;;10.50;99.90;;;;;;5014906;28;20270;-77
2021/04/11 00:50:14;;;;;;;5.07;4.40;;;10.50;99.90;;;;;;5003603;28;20268;-78
2021/04/11 00:52:43;;;;;;;4.77;4.30;;;10.40;99.90;;;;;;4995485;28;20193;-77
2021/04/11 00:55:12;;;;;;;5.13;4.50;;;10.40;99.90;;;;;;5005926;28;20272;-77
2021/04/11 00:57:39;;;;;;;5.57;4.47;;;10.40;99.90;;;;;;5006517;28;20709;-78
2021/04/11 01:00:08;;;;;;;4.97;4.07;;;10.40;99.90;;;;;;5003877;28;20748;-78
2021/04/11 01:02:37;;;;;;;4.60;4.20;;;10.40;99.90;;;;;;5008273;28;20211;-77
2021/04/11 01:05:09;;;;;;;4.23;3.80;;;10.40;99.90;;;;;;5006267;28;20299;-77
2021/04/11 01:07:38;;;;;;;4.30;4.00;;;10.40;99.90;;;;;;5013163;28;20224;-77
2021/04/11 01:10:09;;;;;;;4.50;4.10;;;10.40;99.90;;;;;;5005424;28;20772;-78
2021/04/11 01:12:36;;;;;;;4.20;3.80;;;10.30;99.90;;;;;;5009528;28;20204;-78
2021/04/11 01:15:06;;;;;;;4.27;3.87;;;10.30;99.90;;;;;;5002800;28;20678;-78
2021/04/11 01:17:34;;;;;;;4.87;4.37;;;10.20;99.90;;;;;;5007871;28;20201;-78
2021/04/11 01:20:01;;;;;;;4.10;3.70;;;10.30;99.90;;;;;;5005817;28;20204;-78
2021/04/11 01:22:42;;;;;;;4.80;4.03;;;10.20;99.90;;;;;;5006994;28;20196;-77
2021/04/11 01:25:16;;;;;;;5.37;3.70;;;10.20;99.90;;;;;;5013675;28;20274;-78
2021/04/11 01:27:44;;;;;;;4.37;3.53;;;10.30;99.90;;;;;;5011274;28;20219;-78
2021/04/11 01:30:17;;;;;;;3.93;3.53;;;10.20;99.90;;;;;;5006568;28;20661;-77
2021/04/11 01:32:44;;;;;;;4.10;3.40;;;10.30;99.90;;;;;;5007659;28;20677;-77
2021/04/11 01:35:13;;;;;;;3.93;3.53;;;10.30;99.90;;;;;;5010107;28;20343;-78
2021/04/11 01:37:40;;;;;;;4.57;3.80;;;10.30;99.90;;;;;;5010593;28;20189;-77
2021/04/11 01:40:11;;;;;;;4.47;4.07;;;10.30;99.90;;;;;;5007034;28;20200;-77
2021/04/11 01:42:39;;;;;;;3.93;3.63;;;10.20;99.90;;;;;;5005103;28;20205;-77
2021/04/11 01:45:07;;;;;;;4.13;3.73;;;10.20;99.90;;;;;;5008181;28;20223;-78
2021/04/11 01:47:34;;;;;;;3.60;3.30;;;10.20;99.90;;;;;;4998665;28;20714;-77
2021/04/11 01:50:01;;;;;;;4.40;3.37;;;10.10;99.90;;;;;;5010983;28;20203;-78
2021/04/11 01:52:32;;;;;;;3.47;3.17;;;10.10;99.90;;;;;;5008751;28;20196;-77
2021/04/11 01:54:58;;;;;;;3.00;2.70;;;10.10;99.90;;;;;;5011420;28;20220;-77
2021/04/11 01:57:32;;;;;;;3.47;3.17;;;10.10;99.90;;;;;;4997240;28;20198;-78
2021/04/11 02:00:14;;;;;;;4.23;3.83;;;10.00;99.90;;;;;;5009619;28;20215;-78
2021/04/11 02:02:45;;;;;;;3.27;3.07;;;10.00;99.90;;;;;;5008739;28;20317;-78
2021/04/11 02:05:18;;;;;;;4.30;3.90;;;10.00;99.90;;;;;;5007545;28;20496;-77
2021/04/11 02:07:51;;;;;;;4.33;3.70;;;10.10;99.90;;;;;;5005942;28;20274;-78
2021/04/11 02:10:25;;;;;;;2.30;2.20;;;10.10;99.90;;;;;;5006817;28;20225;-78
2021/04/11 02:13:10;;;;;;;2.60;2.40;;;10.10;99.90;;;;;;5012264;28;20279;-77
2021/04/11 02:15:42;;;;;;;2.97;2.60;;;10.10;99.90;;;;;;4999165;28;20217;-77
2021/04/11 02:18:11;;;;;;;2.30;2.10;;;10.10;99.90;;;;;;5005748;28;20330;-77
2021/04/11 02:20:38;;;;;;;2.93;2.63;;;10.20;99.90;;;;;;5011430;28;20298;-77
2021/04/11 02:23:06;;;;;;;4.07;2.77;;;10.20;99.90;;;;;;5012906;28;20197;-77
2021/04/11 02:25:41;;;;;;;3.00;2.70;;;10.20;99.90;;;;;;5008825;28;20613;-77
2021/04/11 02:28:10;;;;;;;3.43;2.47;;;10.20;99.90;;;;;;5007292;28;20216;-76
2021/04/11 02:30:41;;;;;;;2.80;2.60;;;10.20;99.90;;;;;;5014137;28;20212;-78
2021/04/11 02:33:10;;;;;;;2.50;2.30;;;10.20;99.90;;;;;;5014793;28;20203;-78
2021/04/11 02:35:37;;;;;;;2.70;2.50;;;10.20;99.90;;;;;;5004986;28;20224;-77
2021/04/11 02:38:07;;;;;;;2.50;2.30;;;10.20;99.90;;;;;;5007132;28;20188;-78
2021/04/11 02:40:37;;;;;;;3.00;2.63;;;10.20;99.90;;;;;;5012883;28;20287;-79
2021/04/11 02:43:14;;;;;;;4.20;2.53;;;10.20;99.90;;;;;;5011661;28;20201;-79
2021/04/11 02:45:44;;;;;;;2.60;2.40;;;10.20;99.90;;;;;;5000167;28;20245;-78
2021/04/11 02:48:14;;;;;;;2.90;2.43;;;10.20;99.90;;;;;;5012081;28;20220;-78
2021/04/11 02:50:49;;;;;;;3.20;2.30;;;10.20;99.90;;;;;;5008287;28;20298;-78
2021/04/11 02:53:22;;;;;;;3.13;2.60;;;10.20;99.90;;;;;;5012289;28;20696;-78
2021/04/11 02:55:54;;;;;;;3.20;2.83;;;10.20;99.90;;;;;;5013877;28;20216;-80
2021/04/11 02:58:23;;;;;;;2.47;2.27;;;10.20;99.90;;;;;;4990231;28;20634;-75
2021/04/11 03:01:05;;;;;;;2.47;2.27;;;10.30;99.90;;;;;;5007144;28;20552;-75
2021/04/11 03:03:33;;;;;;;2.37;2.17;;;10.30;99.90;;;;;;5024512;28;20217;-78
2021/04/11 03:06:05;;;;;;;2.97;2.50;;;10.30;99.90;;;;;;5034331;28;20221;-79
2021/04/11 03:08:35;;;;;;;2.30;2.10;;;10.30;99.90;;;;;;5022683;28;20198;-76
2021/04/11 03:11:12;;;;;;;3.83;2.30;;;10.30;99.90;;;;;;5000241;28;20591;-77
2021/04/11 03:13:40;;;;;;;3.03;2.33;;;10.40;99.90;;;;;;5012566;28;20231;-78
2021/04/11 03:16:07;;;;;;;2.50;2.30;;;10.40;99.90;;;;;;5001100;28;20217;-77
2021/04/11 03:18:35;;;;;;;2.50;2.30;;;10.40;99.90;;;;;;4999902;28;20450;-77
2021/04/11 03:21:05;;;;;;;2.53;2.33;;;10.50;99.90;;;;;;5012027;28;20189;-79
2021/04/11 03:23:34;;;;;;;2.73;2.40;;;10.50;99.90;;;;;;5020471;28;20200;-79
2021/04/11 03:26:17;;;;;;;2.17;2.00;;;10.50;99.90;;;;;;5022717;28;20220;-79
2021/04/11 03:28:51;;;;;;;2.50;2.30;;;10.60;99.90;;;;;;5013243;28;20193;-78
2021/04/11 03:31:22;;;;;;;2.53;2.03;;;10.70;99.90;;;;;;5001681;28;20193;-77
2021/04/11 03:33:56;;;;;;;3.70;2.30;;;10.70;99.90;;;;;;5000007;28;20205;-78
2021/04/11 03:36:25;;;;;;;2.20;2.00;;;10.70;99.90;;;;;;4999640;28;20217;-78
2021/04/11 03:38:52;;;;;;;2.20;2.10;;;10.70;99.90;;;;;;4998652;28;20295;-79
2021/04/11 03:41:20;;;;;;;2.83;2.47;;;10.70;99.90;;;;;;5000042;28;20220;-78
2021/04/11 03:43:55;;;;;;;2.10;2.00;;;10.60;99.90;;;;;;5004273;28;20201;-77
2021/04/11 03:46:35;;;;;;;2.30;2.10;;;10.60;99.90;;;;;;5001304;28;20312;-77
2021/04/11 03:49:10;;;;;;;2.33;2.10;;;10.60;99.90;;;;;;5006259;28;20216;-78
2021/04/11 03:51:39;;;;;;;2.50;2.30;;;10.60;99.90;;;;;;5001964;28;20677;-78
2021/04/11 03:54:12;;;;;;;2.00;1.90;;;10.60;99.90;;;;;;4996595;28;20259;-78
2021/04/11 03:56:42;;;;;;;2.33;2.03;;;10.70;99.90;;;;;;4999800;28;20263;-77
2021/04/11 03:59:11;;;;;;;2.00;1.90;;;10.70;99.90;;;;;;5003149;28;20194;-77
2021/04/11 04:01:46;;;;;;;2.10;2.00;;;10.70;99.90;;;;;;5010044;28;20211;-79
2021/04/11 04:04:17;;;;;;;2.27;2.07;;;10.70;99.90;;;;;;5009388;28;20212;-79
2021/04/11 04:07:10;;;;;;;2.00;1.90;;;10.80;99.90;;;;;;5008026;28;20217;-79
2021/04/11 04:09:40;;;;;;;2.23;2.07;;;10.80;99.90;;;;;;5008419;28;20201;-79
2021/04/11 04:12:56;;;;;;;2.07;1.87;;;10.80;99.90;;;;;;5006984;28;20663;-78
2021/04/11 04:15:45;;;;;;;3.07;2.20;;;10.80;99.90;;;;;;5001930;28;20216;-79
2021/04/11 04:18:45;;;;;;;2.23;2.03;;;10.80;99.90;;;;;;5007415;28;20192;-78
2021/04/11 04:21:25;;;;;;;2.07;1.97;;;10.80;99.90;;;;;;5001216;28;20307;-79
2021/04/11 04:24:01;;;;;;;2.00;1.90;;;10.80;99.90;;;;;;5001572;28;20208;-78
2021/04/11 04:26:42;;;;;;;2.33;2.00;;;10.80;99.90;;;;;;5007574;28;20229;-78
2021/04/11 04:29:25;;;;;;;2.27;2.10;;;10.90;99.90;;;;;;5012553;28;20211;-78
2021/04/11 04:32:01;;;;;;;1.97;1.87;;;10.80;99.90;;;;;;5008953;28;20200;-78
2021/04/11 04:34:38;;;;;;;2.50;2.13;;;10.80;99.90;;;;;;5013467;28;20649;-79
2021/04/11 04:37:15;;;;;;;2.27;2.07;;;10.80;99.90;;;;;;5013878;28;20200;-78
2021/04/11 04:40:01;;;;;;;2.40;2.20;;;10.80;99.90;;;;;;5008359;28;20285;-79
2021/04/11 04:42:45;;;;;;;2.47;2.27;;;10.80;99.90;;;;;;5013070;28;20210;-79
2021/04/11 04:45:20;;;;;;;2.40;2.20;;;10.80;99.90;;;;;;5012429;28;20223;-78
2021/04/11 04:48:04;;;;;;;2.10;2.00;;;10.80;99.90;;;;;;5010034;28;20689;-78
2021/04/11 04:50:38;;;;;;;3.53;2.30;;;10.80;99.90;;;;;;5003637;28;20240;-79
2021/04/11 04:53:21;;;;;;;2.17;2.07;;;10.80;99.90;;;;;;5010573;28;20208;-79
2021/04/11 04:55:53;;;;;;;3.00;2.40;;;10.80;99.90;;;;;;5009151;28;20743;-78
2021/04/11 04:58:26;;;;;;;2.60;2.30;;;10.80;99.90;;;;;;5002278;28;20215;-79
2021/04/11 05:00:56;;;;;;;2.10;1.90;;;10.80;99.90;;;;;;5005255;28;20209;-80
2021/04/11 05:03:36;;;;;;;2.80;2.03;;;10.80;99.90;;;;;;5008368;28;20723;-80
2021/04/11 05:06:28;;;;;;;2.40;2.20;;;10.80;99.90;;;;;;4998906;28;20225;-81
2021/04/11 05:09:24;;;;;;;2.43;2.20;;;10.80;99.90;;;;;;5006329;28;20220;-79
2021/04/11 05:12:08;;;;;;;2.30;2.10;;;10.80;99.90;;;;;;5002558;28;20304;-81
2021/04/11 05:14:59;;;;;;;2.33;2.13;;;10.90;99.90;;;;;;5003497;28;20574;-84
2021/04/11 05:17:29;;;;;;;2.00;1.90;;;11.00;99.90;;;;;;4988304;28;20200;-79
2021/04/11 05:20:01;;;;;;;2.33;2.13;;;11.00;99.90;;;;;;5003720;28;20200;-79
2021/04/11 05:22:40;;;;;;;3.50;2.97;;;11.00;99.90;;;;;;5008452;28;20238;-79
2021/04/11 05:25:17;;;;;;;5.47;2.70;;;10.90;99.90;;;;;;5006369;28;20244;-79
2021/04/11 05:27:59;;;;;;;3.77;2.53;;;10.80;99.90;;;;;;4998612;28;20600;-79
2021/04/11 05:30:31;;;;;;;3.30;3.00;;;10.70;99.90;;;;;;5006858;28;20201;-78
2021/04/11 05:32:59;;;;;;;3.60;3.30;;;10.60;99.90;;;;;;5006927;28;20276;-79
2021/04/11 05:35:28;;;;;;;4.17;2.93;;;10.60;99.90;;;;;;5005645;28;20217;-79
2021/04/11 05:38:10;;;;;;;5.07;3.43;;;10.50;99.90;;;;;;5002030;28;20231;-79
2021/04/11 05:40:41;;;;;;;4.67;3.30;;;10.50;99.90;;;;;;5008864;28;20665;-79
2021/04/11 05:43:12;;;;;;;4.10;3.03;;;10.50;99.90;;;;;;5012068;28;20715;-79
2021/04/11 05:45:47;;;;;;;3.57;2.70;;;10.60;99.90;;;;;;5009113;28;20217;-79
2021/04/11 05:48:21;;;;;;;3.20;2.90;;;10.70;99.90;;;;;;5013338;28;20219;-79
2021/04/11 05:50:56;;;;;;;3.13;2.83;;;10.80;99.90;;;;;;5017656;28;20589;-79
2021/04/11 05:53:27;;;;;;;3.53;2.83;;;10.90;99.90;;;;;;5011194;28;20204;-79
2021/04/11 05:55:58;;;;;;;2.90;2.40;;;11.00;99.90;;;;;;5009932;28;20298;-79
2021/04/11 05:58:31;;;;;;;3.87;2.60;;;11.10;99.90;;;;;;5010959;28;20203;-78
2021/04/11 06:01:03;;;;;;;3.90;2.47;;;11.20;99.90;;;;;;5003044;28;20200;-79
2021/04/11 06:03:33;;;;;;;2.70;2.50;;;11.30;99.90;;;;;;5013540;28;20231;-79
2021/04/11 06:06:12;;;;;;;2.80;2.60;;;11.50;99.90;;;;;;5003825;28;20229;-79
2021/04/11 06:08:44;;;;;;;2.93;2.60;;;11.70;99.90;;;;;;5016462;28;20195;-79
2021/04/11 06:11:26;;;;;;;3.00;2.50;;;11.80;99.90;;;;;;5000180;28;20555;-79
2021/04/11 06:13:59;;;;;;;2.60;2.40;;;11.90;99.90;;;;;;5016453;28;20194;-79
2021/04/11 06:16:28;;;;;;;2.60;2.40;;;12.10;99.90;;;;;;5018031;28;20231;-79
2021/04/11 06:18:56;;;;;;;3.50;2.90;;;12.20;99.90;;;;;;5009752;28;20208;-79
2021/04/11 06:21:35;;;;;;;4.27;3.20;;;12.40;99.90;;;;;;5012833;28;20208;-79
2021/04/11 06:24:09;;;;;;;5.90;4.80;;;12.50;99.90;;;;;;5016640;28;20197;-79
2021/04/11 06:26:40;;;;;;;7.07;5.30;;;12.60;99.90;;;;;;5045492;23;20220;-80
2021/04/11 06:29:15;;;;;;;8.47;5.03;;;12.70;99.90;;;;;;5023647;28;20201;-80
2021/04/11 06:31:47;;;;;;;8.40;5.87;;;12.80;99.90;;;;;;5021655;28;20762;-80
2021/04/11 06:34:18;;;;;;;6.77;5.40;;;12.90;99.90;;;;;;5022339;28;20251;-80
2021/04/11 06:36:48;;;;;;;7.50;5.03;;;13.10;99.90;;;;;;5024516;28;20251;-79
2021/04/11 06:39:24;;;;;;;5.40;4.27;;;13.20;99.90;;;;;;5016314;28;20203;-80
2021/04/11 06:42:20;;;;;;;4.43;3.67;;;13.50;99.90;;;;;;5020969;28;20193;-80
2021/04/11 06:45:10;;;;;;;4.37;3.33;;;13.60;99.90;;;;;;5019555;28;20198;-81
2021/04/11 06:48:07;;;;;;;3.30;3.00;;;13.90;99.90;;;;;;5022556;28;20213;-79
2021/04/11 06:50:49;;;;;;;3.93;3.40;;;14.20;99.90;;;;;;5017895;28;20203;-79
2021/04/11 06:53:34;;;;;;;4.77;4.07;;;14.20;99.90;;;;;;5012188;28;20204;-78
2021/04/11 06:56:22;;;;;;;5.00;3.70;;;14.20;99.90;;;;;;5021415;28;20216;-82
2021/04/11 06:58:57;;;;;;;4.17;3.77;;;14.10;99.90;;;;;;5022177;28;20722;-79
2021/04/11 07:01:59;;;;;;;5.93;4.37;;;14.00;99.90;;;;;;5017162;28;20203;-80
2021/04/11 07:04:52;;;;;;;5.73;4.23;;;13.90;99.90;;;;;;5012664;28;20210;-81
2021/04/11 07:08:01;;;;;;;4.87;4.33;;;13.90;99.90;;;;;;5006591;28;20218;-79
2021/04/11 07:10:46;;;;;;;6.47;5.43;;;14.20;99.90;;;;;;5017911;28;20195;-78
2021/04/11 07:13:48;;;;;;;9.67;6.80;;;14.40;99.90;;;;;;5022966;28;20258;-77
2021/04/11 07:16:34;;;;;;;7.83;4.70;;;14.80;99.90;;;;;;5005706;28;20228;-78
2021/04/11 07:19:27;;;;;;;9.20;5.83;;;15.40;99.90;;;;;;5026940;28;20207;-79
2021/04/11 07:22:21;;;;;;;7.50;4.87;;;15.80;99.90;;;;;;5015523;28;20575;-78
2021/04/11 07:25:19;;;;;;;6.00;4.60;;;16.00;99.90;;;;;;5029638;28;20196;-80
2021/04/11 07:28:02;;;;;;;6.97;4.70;;;15.90;99.90;;;;;;5012894;28;20226;-80
2021/04/11 07:30:37;;;;;;;6.53;4.80;;;15.70;99.90;;;;;;5020235;28;20193;-78
2021/04/11 07:33:43;;;;;;;6.97;5.10;;;15.60;99.90;;;;;;5017931;28;20219;-78
2021/04/11 07:36:34;;;;;;;7.00;4.43;;;15.50;99.90;;;;;;5018499;28;20213;-78
2021/04/11 07:39:11;;;;;;;5.63;4.70;;;15.40;99.90;;;;;;5016795;28;20193;-78
2021/04/11 07:42:01;;;;;;;6.47;4.83;;;15.40;99.90;;;;;;5025872;28;20589;-78
2021/04/11 07:44:51;;;;;;;5.80;4.70;;;15.30;99.90;;;;;;5021915;28;20203;-78
2021/04/11 07:47:43;;;;;;;4.00;3.60;;;15.30;99.90;;;;;;5017539;28;20217;-79
2021/04/11 07:50:23;;;;;;;4.57;3.70;;;15.40;99.90;;;;;;5016873;28;20579;-78
2021/04/11 07:53:19;;;;;;;4.57;3.53;;;15.60;99.90;;;;;;5029809;28;20210;-78
2021/04/11 07:55:54;;;;;;;3.40;3.03;;;15.70;99.90;;;;;;5014560;28;20239;-77
2021/04/11 07:58:56;;;;;;;3.60;3.30;;;15.90;99.90;;;;;;5027475;28;20738;-78
2021/04/11 08:01:47;;;;;;;4.43;3.00;;;16.00;99.90;;;;;;5014900;28;20265;-79
2021/04/11 08:04:38;;;;;;;3.73;2.57;;;16.00;99.90;;;;;;5024977;28;20193;-80
2021/04/11 08:07:15;;;;;;;2.90;2.70;;;16.00;99.90;;;;;;5016851;28;20219;-78
2021/04/11 08:09:56;;;;;;;2.40;2.20;;;16.10;99.90;;;;;;5018984;28;20231;-81
2021/04/11 08:12:49;;;;;;;3.07;2.30;;;16.20;99.90;;;;;;5018766;28;20684;-79
2021/04/11 08:15:20;;;;;;;3.07;2.60;;;16.10;99.90;;;;;;5017522;28;20281;-80
2021/04/11 08:18:25;;;;;;;2.50;2.30;;;16.00;99.90;;;;;;5013966;28;20200;-79
2021/04/11 08:21:03;;;;;;;4.00;2.20;;;16.10;99.90;;;;;;5022724;28;20674;-79
2021/04/11 08:24:01;;;;;;;3.37;2.10;;;16.30;99.90;;;;;;5016518;28;20609;-80
2021/04/11 08:26:54;;;;;;;3.65;2.90;;;16.40;99.90;;;;;;4986465;28;20247;-78
2021/04/11 08:29:51;;;;;;;5.33;3.37;;;16.60;99.90;;;;;;5014349;28;20692;-80
2021/04/11 08:32:53;;;;;;;3.53;3.23;;;16.80;99.90;;;;;;5017634;28;20236;-81
2021/04/11 08:35:56;;;;;;;3.60;3.30;;;17.10;99.90;;;;;;5019024;28;20225;-79
2021/04/11 08:38:42;;;;;;;5.13;3.17;;;17.40;99.90;;;;;;5010839;28;20191;-79
2021/04/11 08:41:34;;;;;;;3.33;3.10;;;17.50;99.90;;;;;;5010146;28;20227;-79
2021/04/11 08:44:11;;;;;;;3.63;3.33;;;17.80;99.90;;;;;;5019464;28;20205;-79
2021/04/11 08:46:53;;;;;;;4.47;3.67;;;17.90;99.90;;;;;;5013704;28;20233;-78
2021/04/11 08:49:24;;;;;;;3.10;2.90;;;18.00;99.90;;;;;;5012073;28;20208;-78
2021/04/11 08:52:00;;;;;;;4.00;3.60;;;18.20;99.90;;;;;;5008686;28;20204;-79
2021/04/11 08:54:46;;;;;;;4.30;3.90;;;18.30;99.90;;;;;;5019157;28;20680;-78
2021/04/11 08:57:21;;;;;;;4.47;4.07;;;18.40;99.80;;;;;;5030470;28;20203;-79
2021/04/11 08:59:55;;;;;;;3.97;3.67;;;18.30;99.40;;;;;;5023130;28;20200;-80
2021/04/11 09:02:36;;;;;;;3.77;3.47;;;18.10;99.30;;;;;;5018533;28;20187;-79
2021/04/11 09:05:13;;;;;;;3.47;3.13;;;18.20;99.90;;;;;;5020124;28;20677;-79
2021/04/11 09:08:09;;;;;;;3.50;2.50;;;18.40;99.80;;;;;;5016342;28;20267;-80
2021/04/11 09:10:48;;;;;;;3.83;3.40;;;18.30;99.90;;;;;;5007187;28;20620;-78
2021/04/11 09:13:27;;;;;;;4.10;3.57;;;18.10;99.90;;;;;;5007775;28;20199;-78
2021/04/11 09:16:03;;;;;;;3.13;2.93;;;18.10;99.00;;;;;;5018198;28;20228;-79
2021/04/11 09:18:39;;;;;;;3.80;3.00;;;18.10;99.70;;;;;;5013666;28;20192;-79
2021/04/11 09:21:33;;;;;;;2.80;2.60;;;18.20;99.90;;;;;;5009140;28;20280;-79
2021/04/11 09:24:04;;;;;;;3.00;2.70;;;18.50;99.90;;;;;;5018845;28;20209;-79
2021/04/11 09:27:08;;;;;;;4.73;2.90;;;18.50;98.90;;;;;;5007587;28;20224;-80
2021/04/11 09:29:45;;;;;;;2.83;2.50;;;18.50;99.10;;;;;;5010680;28;20251;-79
2021/04/11 09:32:27;;;;;;;2.70;2.50;;;18.50;99.50;;;;;;5021220;28;20203;-78
2021/04/11 09:35:14;;;;;;;3.63;2.40;;;18.60;99.60;;;;;;5016737;28;20199;-79
2021/04/11 09:38:07;;;;;;;2.87;2.57;;;18.70;99.10;;;;;;5014498;28;20197;-79
2021/04/11 09:40:44;;;;;;;2.90;2.60;;;18.70;99.40;;;;;;5018537;28;20264;-79
2021/04/11 09:43:26;;;;;;;2.53;2.33;;;18.80;98.70;;;;;;5024192;28;20200;-78
2021/04/11 09:46:36;;;;;;;3.50;3.20;;;19.00;99.40;;;;;;5017256;28;20216;-79
2021/04/11 09:49:18;;;;;;;4.13;3.83;;;19.40;99.30;;;;;;4990151;28;20201;-77
2021/04/11 09:52:17;;;;;;;4.37;3.97;;;20.00;97.10;;;;;;5017573;28;20208;-79
2021/04/11 09:54:45;;;;;;;4.50;4.10;;;20.60;96.20;;;;;;5011061;28;20202;-78
2021/04/11 09:57:42;;;;;;;3.93;3.63;;;21.40;96.50;;;;;;5007846;28;20188;-78
2021/04/11 10:00:16;;;;;;;4.33;3.93;;;21.70;94.50;;;;;;5027839;28;20239;-78
2021/04/11 10:03:04;;;;;;;4.57;3.63;;;21.50;94.40;;;;;;5012441;28;20214;-78
2021/04/11 10:05:40;;;;;;;4.00;3.70;;;21.30;93.10;;;;;;5010914;28;20739;-78
2021/04/11 10:08:34;;;;;;;3.80;3.50;;;21.40;93.50;;;;;;5012434;28;20212;-78
2021/04/11 10:11:21;;;;;;;4.33;4.03;;;21.80;92.50;;;;;;5022929;28;20225;-78
2021/04/11 10:14:20;;;;;;;4.93;3.90;;;22.00;92.30;;;;;;5010457;28;20200;-77
2021/04/11 10:16:58;;;;;;;4.00;3.70;;;22.20;91.30;;;;;;5008678;28;20220;-78
2021/04/11 10:19:40;;;;;;;4.93;3.73;;;22.00;92.20;;;;;;5017441;28;20207;-77
2021/04/11 10:22:36;;;;;;;3.90;3.60;;;22.00;91.80;;;;;;5018848;28;20211;-78
2021/04/11 10:25:12;;;;;;;3.77;3.47;;;21.90;91.30;;;;;;5019234;28;20234;-78
2021/04/11 10:27:43;;;;;;;3.90;3.50;;;21.90;92.40;;;;;;5022730;28;20226;-78
2021/04/11 10:30:13;;;;;;;3.60;3.30;;;21.90;92.30;;;;;;5024534;28;20226;-79
2021/04/11 10:32:46;;;;;;;3.43;3.13;;;21.90;91.40;;;;;;5028261;28;20577;-78
2021/04/11 10:35:19;;;;;;;3.60;3.30;;;21.80;91.50;;;;;;5025007;28;20216;-79
2021/04/11 10:37:51;;;;;;;4.07;3.50;;;21.70;91.20;;;;;;5030173;28;20196;-78
2021/04/11 10:40:32;;;;;;;3.50;3.20;;;21.70;91.60;;;;;;5019083;28;20207;-80
2021/04/11 10:43:07;;;;;;;3.50;3.20;;;21.80;91.40;;;;;;5010652;28;20296;-79
2021/04/11 10:45:40;;;;;;;5.20;3.87;;;21.80;91.20;;;;;;5016217;28;20238;-80
2021/04/11 10:48:41;;;;;;;3.60;3.30;;;21.70;91.20;;;;;;5020291;28;20212;-80
2021/04/11 10:51:40;;;;;;;4.77;3.50;;;21.60;91.10;;;;;;5009110;28;20230;-79
2021/04/11 10:54:31;;;;;;;3.53;3.23;;;21.60;91.30;;;;;;5012483;28;20216;-80
2021/04/11 10:57:16;;;;;;;4.40;3.30;;;21.80;91.00;;;;;;5020608;28;20214;-79
2021/04/11 11:00:08;;;;;;;3.40;3.10;;;22.00;91.00;;;;;;5015465;28;20207;-77
2021/04/11 11:03:05;;;;;;;3.10;2.90;;;22.00;90.00;;;;;;5014643;28;20207;-77
2021/04/11 11:06:11;;;;;;;3.23;3.00;;;21.90;90.60;;;;;;5011313;28;20217;-78
2021/04/11 11:09:02;;;;;;;3.57;3.27;;;22.20;89.60;;;;;;5024583;28;20220;-78
2021/04/11 11:12:01;;;;;;;3.03;2.80;;;22.10;87.60;;;;;;5026757;28;20265;-80
2021/04/11 11:14:54;;;;;;;4.23;3.40;;;21.90;88.70;;;;;;5031329;28;20692;-79
2021/04/11 11:17:52;;;;;;;6.43;3.67;;;21.70;90.50;;;;;;5013408;28;20215;-78
2021/04/11 11:20:22;;;;;;;7.30;4.43;;;21.70;90.20;;;;;;4999244;28;20300;-81
2021/04/11 11:23:22;;;;;;;6.50;4.63;;;21.60;90.10;;;;;;5019067;28;20323;-80
2021/04/11 11:26:04;;;;;;;4.33;3.63;;;21.50;90.20;;;;;;5005319;28;20300;-79
2021/04/11 11:28:51;;;;;;;3.70;3.20;;;21.50;90.00;;;;;;5008680;28;20217;-80
2021/04/11 11:31:30;;;;;;;2.90;2.60;;;21.60;90.00;;;;;;5005985;28;20688;-79
2021/04/11 11:34:14;;;;;;;2.80;2.60;;;21.60;88.90;;;;;;5009008;28;20192;-80
2021/04/11 11:36:44;;;;;;;2.30;2.20;;;21.70;89.30;;;;;;5015892;28;20217;-81
2021/04/11 11:39:24;;;;;;;2.57;2.20;;;21.80;88.90;;;;;;5011424;28;20209;-79
2021/04/11 11:41:57;;;;;;;3.07;2.40;;;21.80;88.70;;;;;;5009856;28;20683;-79
2021/04/11 11:44:27;;;;;;;2.20;2.00;;;21.70;90.20;;;;;;5015173;28;20200;-80
2021/04/11 11:47:01;;;;;;;2.17;1.80;;;21.70;88.70;;;;;;5020420;28;20227;-80
2021/04/11 11:49:36;;;;;;;2.50;2.30;;;21.70;90.10;;;;;;5018872;28;20196;-80
2021/04/11 11:52:07;;;;;;;2.23;1.80;;;21.60;89.80;;;;;;5018225;28;20195;-81
2021/04/11 11:54:38;;;;;;;4.50;2.47;;;21.50;90.40;;;;;;5014871;28;20204;-80
2021/04/11 11:57:24;;;;;;;2.40;2.30;;;21.50;90.20;;;;;;5015276;28;20231;-80
2021/04/11 12:00:01;;;;;;;2.50;2.30;;;21.80;89.20;;;;;;5020952;28;20220;-79
2021/04/11 12:02:36;;;;;;;3.07;2.57;;;22.00;88.10;;;;;;5018775;28;20197;-80
2021/04/11 12:05:11;;;;;;;5.53;3.20;;;21.80;86.30;;;;;;5021912;28;20195;-79
2021/04/11 12:07:43;;;;;;;13.37;6.33;;;21.60;86.80;;;;;;5022258;28;20207;-77
2021/04/11 12:10:26;;;;;;;17.30;9.73;;;21.50;88.90;;;;;;5027062;28;20192;-81
2021/04/11 12:13:18;;;;;;;11.27;7.20;;;21.40;88.00;;;;;;5022223;28;20204;-79
2021/04/11 12:16:03;;;;;;;9.60;5.53;;;21.50;87.70;;;;;;5022188;28;20216;-79
2021/04/11 12:18:32;;;;;;;6.33;3.77;;;21.50;87.40;;;;;;5012310;28;20192;-78
2021/04/11 12:21:11;;;;;;;5.00;3.83;;;21.60;87.10;;;;;;5026213;28;20586;-79
2021/04/11 12:23:41;;;;;;;7.03;4.20;;;21.60;87.30;;;;;;5016833;28;20196;-78
2021/04/11 12:26:11;;;;;;;3.27;2.70;;;21.60;87.20;;;;;;5039008;23;20232;-77
2021/04/11 12:28:41;;;;;;;4.10;3.60;;;21.60;88.40;;;;;;5014529;28;20579;-78
2021/04/11 12:31:22;;;;;;;4.27;3.40;;;21.80;88.50;;;;;;5012573;28;20236;-76
2021/04/11 12:33:56;;;;;;;7.67;4.17;;;21.90;87.80;;;;;;5014287;28;20596;-75
2021/04/11 12:36:34;;;;;;;9.00;5.70;;;22.00;88.30;;;;;;5010822;28;20465;-75
2021/04/11 12:39:07;;;;;;;5.07;3.67;;;22.20;87.00;;;;;;4995432;28;20272;-75
2021/04/11 12:41:41;;;;;;;3.13;2.90;;;22.10;84.80;;;;;;4994496;28;20267;-76
2021/04/11 12:44:16;;;;;;;3.40;3.10;;;22.00;86.10;;;;;;4995741;28;20201;-76
2021/04/11 12:46:53;;;;;;;3.83;2.80;;;21.90;85.50;;;;;;4997380;28;20302;-76
2021/04/11 12:49:25;;;;;;;3.37;2.07;;;21.90;85.50;;;;;;4994247;28;20200;-76
2021/04/11 12:51:59;;;;;;;2.50;2.40;;;21.90;85.40;;;;;;4998545;28;20260;-76
2021/04/11 12:54:33;;;;;;;1.90;1.80;;;22.20;85.10;;;;;;4998794;28;20196;-76
2021/04/11 12:57:03;;;;;;;2.03;1.93;;;22.20;84.40;;;;;;4997554;28;20279;-76
2021/04/11 12:59:38;;;;;;;2.00;1.90;;;22.30;84.50;;;;;;4995503;28;20205;-76
2021/04/11 13:02:11;;;;;;;2.17;1.80;;;22.40;84.30;;;;;;5002180;28;20274;-76
2021/04/11 13:04:41;;;;;;;1.87;1.77;;;22.40;84.40;;;;;;5000408;28;20211;-76
2021/04/11 13:07:13;;;;;;;3.17;1.73;;;22.40;83.90;;;;;;5000325;28;20209;-76
2021/04/11 13:09:55;;;;;;;2.20;1.70;;;22.10;83.10;;;;;;5001093;28;20189;-76
2021/04/11 13:12:31;;;;;;;3.30;1.70;;;21.90;83.60;;;;;;4993705;28;20436;-78
2021/04/11 13:15:04;;;;;;;2.60;2.40;;;21.90;84.80;;;;;;4998854;28;20205;-76
2021/04/11 13:17:38;;;;;;;3.17;2.53;;;22.00;84.80;;;;;;4993230;28;20220;-76
2021/04/11 13:20:13;;;;;;;2.00;1.90;;;22.00;84.60;;;;;;4994040;28;20197;-76
2021/04/11 13:22:47;;;;;;;1.40;1.40;;;22.20;84.50;;;;;;4999243;28;20262;-76
2021/04/11 13:25:18;;;;;;;1.47;1.40;;;22.50;84.30;;;;;;5003115;28;20196;-76
2021/04/11 13:27:48;;;;;;;2.20;1.93;;;22.80;84.00;;;;;;5002119;28;20608;-76
2021/04/11 13:30:20;;;;;;;2.50;2.40;;;23.10;83.00;;;;;;5002426;28;20239;-76
2021/04/11 13:32:51;;;;;;;3.80;3.50;;;23.30;81.40;;;;;;4999618;28;20581;-76
2021/04/11 13:35:24;;;;;;;4.63;3.40;;;23.20;79.20;;;;;;5007146;28;20250;-78
2021/04/11 13:37:56;;;;;;;3.40;3.20;;;23.00;80.40;;;;;;5003383;28;20557;-77
2021/04/11 13:40:26;;;;;;;3.60;3.30;;;22.70;80.50;;;;;;5000542;28;20235;-77